Terminal Aerodrome Forecast
Issued by NWS

Home | Current Version | Previous Version | Text Only | Print | Product List | Glossary On
Versions: 1 2 3 4 5 6 7 8 9 10 11 12 13 14
425
FTUS45 KVEF 281620 AAA
TAFVGT
TAF AMD
KVGT 281620Z 2816/2912 13008KT P6SM SCT120
     FM282200 16010KT P6SM SCT120
     FM290300 19010KT P6SM SCT120
     FM290800 34006KT P6SM FEW120=

USA.gov is the U.S. government's official web portal to all federal, state and local government web resources and services.